Time;durP1;ratioP1;P1;durP2;ratioP2;P2;SDS_P1;SDS_P2;PMS_P1;PMS_P2;Temp;Humidity;BMP_temperature;BMP_pressure;BME280_temperature;BME280_humidity;BME280_pressure;Samples;Min_cycle;Max_cycle;Signal;HPM_P1;HPM_P2
2023/10/24 02:49:34;;;;;;;24.60;8.02;;;;;;;9.47;100.00;95071.47;5001560;26;19929;-80
2023/10/24 02:54:36;;;;;;;21.88;8.10;;;;;;;9.37;100.00;95057.09;5924450;23;20134;-81
2023/10/24 06:00:12;;;;;;;19.88;9.27;;;;;;;11.23;100.00;95170.66;5467290;23;20060;-87
2023/10/24 06:02:38;;;;;;;26.02;8.68;;;;;;;11.51;100.00;95156.25;4989051;28;20037;-88
2023/10/24 06:05:04;;;;;;;22.52;9.10;;;;;;;11.73;100.00;95132.13;4990495;28;20040;-88
2023/10/24 06:07:29;;;;;;;20.10;7.85;;;;;;;11.89;100.00;95144.19;4988824;28;20176;-89
2023/10/24 06:09:55;;;;;;;24.48;7.57;;;;;;;12.19;100.00;95139.91;4991611;28;20029;-89
2023/10/24 06:12:20;;;;;;;21.65;7.18;;;;;;;12.25;100.00;95114.03;5001280;28;20100;-89
2023/10/24 06:14:45;;;;;;;27.23;7.38;;;;;;;12.52;100.00;95115.25;4986222;28;20041;-88
2023/10/24 06:17:17;;;;;;;21.10;9.02;;;;;;;12.81;100.00;95115.22;5012152;28;20029;-88
2023/10/24 06:19:43;;;;;;;25.80;8.45;;;;;;;13.00;100.00;95106.84;4986910;28;20156;-87
2023/10/24 06:22:08;;;;;;;19.25;8.35;;;;;;;13.20;100.00;95097.53;4987057;28;20026;-87
2023/10/24 06:24:34;;;;;;;24.92;7.55;;;;;;;13.29;100.00;95100.03;4984968;28;20038;-87
2023/10/24 06:27:00;;;;;;;24.00;7.85;;;;;;;13.30;100.00;95096.44;5002133;28;20033;-88
2023/10/24 06:29:25;;;;;;;12.90;6.68;;;;;;;13.61;100.00;95110.78;5005618;28;20037;-87
2023/10/24 06:31:51;;;;;;;22.40;7.00;;;;;;;13.43;100.00;95078.34;4989612;28;20045;-88
2023/10/24 06:34:21;;;;;;;15.57;7.32;;;;;;;13.80;100.00;95090.34;5006936;28;20033;-90
2023/10/24 06:36:47;;;;;;;19.08;6.40;;;;;;;13.97;100.00;95079.47;5024801;28;20088;-83
2023/10/24 06:39:12;;;;;;;22.27;6.55;;;;;;;14.20;100.00;95054.00;5015008;28;20026;-90
2023/10/24 06:41:38;;;;;;;21.08;6.80;;;;;;;15.54;100.00;95061.25;5006956;28;20021;-90
2023/10/24 06:44:03;;;;;;;18.63;6.95;;;;;;;17.03;100.00;95044.81;4989335;28;20026;-87
2023/10/24 06:46:29;;;;;;;20.60;6.35;;;;;;;17.68;100.00;95030.59;5005087;28;20060;-86
2023/10/24 06:48:54;;;;;;;14.43;5.63;;;;;;;17.81;100.00;95022.63;4989402;28;20039;-86
2023/10/24 06:51:19;;;;;;;31.33;7.60;;;;;;;17.28;100.00;95043.06;5004862;28;20531;-85
2023/10/24 06:53:45;;;;;;;21.58;6.15;;;;;;;16.89;100.00;95045.88;5024093;28;20025;-90
2023/10/24 06:56:10;;;;;;;25.67;6.53;;;;;;;16.68;100.00;95046.94;4985587;28;20026;-88
2023/10/24 06:58:37;;;;;;;26.30;6.47;;;;;;;16.86;100.00;95043.66;5012756;28;20883;-84
2023/10/24 07:01:02;;;;;;;21.40;6.63;;;;;;;16.81;100.00;95041.69;4988184;28;20057;-86
2023/10/24 07:03:28;;;;;;;18.15;6.10;;;;;;;16.94;100.00;95035.59;5022843;28;20044;-89
2023/10/24 07:05:54;;;;;;;19.15;6.15;;;;;;;17.04;100.00;95033.34;4986237;28;20061;-87
2023/10/24 07:08:20;;;;;;;18.02;5.63;;;;;;;16.89;100.00;95042.47;4997849;28;20073;-87
2023/10/24 07:10:46;;;;;;;19.48;6.40;;;;;;;17.00;100.00;95021.69;5000350;28;20075;-88
2023/10/24 07:13:12;;;;;;;17.02;6.30;;;;;;;17.23;100.00;95035.06;5002720;28;20022;-89
2023/10/24 07:15:38;;;;;;;20.13;6.35;;;;;;;16.82;100.00;95021.56;5002233;28;20146;-88
2023/10/24 07:18:04;;;;;;;26.10;6.07;;;;;;;16.69;100.00;95030.25;4984302;28;20044;-89
2023/10/24 07:20:33;;;;;;;19.60;6.63;;;;;;;17.06;100.00;95027.88;4996774;28;20022;-90
2023/10/24 07:22:59;;;;;;;13.68;5.15;;;;;;;17.32;100.00;95020.72;5002529;28;20407;-90
2023/10/24 07:25:24;;;;;;;19.15;6.45;;;;;;;17.04;100.00;95008.97;4978489;28;20045;-90
2023/10/24 07:27:49;;;;;;;18.73;5.40;;;;;;;17.48;100.00;95021.22;4987595;28;20100;-92
2023/10/24 07:30:15;;;;;;;16.70;5.53;;;;;;;17.97;100.00;95005.56;5004931;28;20026;-88
2023/10/24 07:32:40;;;;;;;21.63;5.72;;;;;;;18.32;100.00;95009.28;5024751;28;20026;-88
2023/10/24 07:35:08;;;;;;;17.17;6.10;;;;;;;18.22;100.00;94997.69;4991306;28;20033;-88
2023/10/24 07:37:35;;;;;;;19.30;5.55;;;;;;;18.23;100.00;94994.84;4974356;28;20029;-86
2023/10/24 07:40:04;;;;;;;17.00;5.30;;;;;;;20.60;90.63;94984.44;5003822;28;20030;-91
2023/10/24 07:42:29;;;;;;;;;;;;;;;22.77;78.17;94979.44;5002042;28;20483;-90
2023/10/24 07:44:56;;;;;;;13.30;5.40;;;;;;;22.71;75.20;94983.06;4983582;28;19914;-86
2023/10/24 07:47:22;;;;;;;18.08;5.97;;;;;;;23.09;74.25;94990.94;4981753;28;20605;-88
2023/10/24 07:49:47;;;;;;;19.70;5.22;;;;;;;22.88;71.48;94981.97;5003223;28;20112;-89
2023/10/24 07:52:13;;;;;;;17.15;5.75;;;;;;;23.05;71.21;94980.03;5001639;28;20696;-88
2023/10/24 07:54:38;;;;;;;20.20;5.43;;;;;;;24.10;67.35;94987.44;5004599;28;20030;-88
2023/10/24 07:57:04;;;;;;;26.45;5.53;;;;;;;23.88;66.23;94980.63;5006012;28;20022;-89
2023/10/24 07:59:30;;;;;;;14.32;5.32;;;;;;;22.92;70.20;94979.66;5005725;28;20116;-87
2023/10/24 08:01:56;;;;;;;24.50;6.95;;;;;;;23.15;70.67;94984.66;4993084;28;20714;-88
2023/10/24 08:04:22;;;;;;;18.95;5.63;;;;;;;23.75;69.22;94983.69;4983438;28;20040;-88
2023/10/24 08:06:47;;;;;;;18.98;5.53;;;;;;;23.82;67.67;94973.72;4994363;28;20037;-83
2023/10/24 08:09:13;;;;;;;26.45;5.60;;;;;;;23.10;68.03;94964.25;5004931;28;20033;-88
2023/10/24 08:11:38;;;;;;;21.75;6.00;;;;;;;23.36;68.51;94956.59;4990703;28;20018;-88
2023/10/24 08:14:03;;;;;;;23.23;6.60;;;;;;;23.90;66.30;94973.22;5005570;28;20034;-88
2023/10/24 08:16:29;;;;;;;20.58;5.93;;;;;;;23.78;66.27;94956.75;5006653;28;20057;-88
2023/10/24 08:18:54;;;;;;;23.30;6.28;;;;;;;24.31;65.35;94983.09;4990213;28;20040;-92
2023/10/24 08:21:20;;;;;;;20.23;6.90;;;;;;;24.49;65.28;94980.03;4989315;28;20025;-88
2023/10/24 08:23:45;;;;;;;16.52;5.72;;;;;;;23.71;67.41;94967.53;4986875;28;20037;-89
2023/10/24 08:26:11;;;;;;;17.90;5.63;;;;;;;23.59;67.11;94962.41;4984778;28;20034;-83
2023/10/24 08:28:36;;;;;;;20.58;7.05;;;;;;;23.46;67.59;94978.69;4996078;28;20415;-89
2023/10/24 08:31:02;;;;;;;18.92;6.00;;;;;;;24.10;65.35;94974.19;4979546;28;20028;-89
2023/10/24 08:33:28;;;;;;;12.57;4.57;;;;;;;23.73;64.82;94962.78;4986072;28;20037;-87
2023/10/24 08:35:54;;;;;;;19.25;5.60;;;;;;;23.78;66.12;94972.63;4997165;28;20031;-88
2023/10/24 08:38:20;;;;;;;18.15;5.57;;;;;;;23.85;64.84;94973.22;5005161;28;20025;-86
2023/10/24 08:40:45;;;;;;;18.17;6.20;;;;;;;23.74;64.69;94966.22;5025809;28;20514;-89
2023/10/24 08:43:11;;;;;;;18.42;6.28;;;;;;;23.41;66.51;94962.75;4989949;28;20030;-87
2023/10/24 08:45:36;;;;;;;12.38;5.40;;;;;;;23.45;64.27;94948.00;5010780;28;20457;-87
2023/10/24 08:48:05;;;;;;;21.88;5.30;;;;;;;23.81;64.30;94940.34;5008587;28;20435;-89
2023/10/24 08:50:31;;;;;;;18.13;5.07;;;;;;;24.36;61.06;94948.72;4994625;28;20061;-88
2023/10/24 08:52:57;;;;;;;17.63;5.55;;;;;;;24.12;63.13;94958.06;4989614;28;20099;-89
2023/10/24 08:55:23;;;;;;;12.00;5.15;;;;;;;24.71;61.56;94952.59;5002348;28;20562;-90
2023/10/24 08:57:49;;;;;;;17.58;5.35;;;;;;;24.62;59.34;94926.59;4977739;28;20033;-87
2023/10/24 09:00:15;;;;;;;26.13;5.72;;;;;;;24.77;58.75;94947.06;4986898;28;20077;-87
2023/10/24 09:02:41;;;;;;;17.70;5.63;;;;;;;24.66;61.05;94953.34;5026672;28;20029;-93
2023/10/24 09:05:09;;;;;;;31.38;6.38;;;;;;;24.94;59.39;94949.53;4986482;28;20031;-93
2023/10/24 09:07:35;;;;;;;;;;;;;;;24.59;58.70;94942.97;4985833;28;20026;-90
2023/10/24 09:10:00;;;;;;;52.90;8.55;;;;;;;23.95;62.85;94936.25;4972392;28;19920;-90
2023/10/24 09:12:28;;;;;;;1071.57;122.15;;;;;;;24.49;61.50;94937.66;4974510;28;20034;-92
2023/10/24 09:14:54;;;;;;;51.80;8.23;;;;;;;23.88;61.62;94920.56;4976252;28;20036;-86
2023/10/24 09:17:19;;;;;;;24.55;6.15;;;;;;;24.22;62.31;94923.72;4993818;28;20029;-88
2023/10/24 09:19:45;;;;;;;27.98;5.80;;;;;;;24.20;59.55;94933.78;4993491;28;20052;-90
2023/10/24 09:22:15;;;;;;;20.48;5.38;;;;;;;23.72;60.28;94915.41;4993456;28;20087;-89
2023/10/24 09:24:48;;;;;;;21.98;4.65;;;;;;;23.75;60.86;94906.97;4995019;28;20029;-88
2023/10/24 09:27:17;;;;;;;17.95;5.10;;;;;;;23.49;59.41;94898.84;4992429;28;20044;-90
2023/10/24 09:29:43;;;;;;;23.73;5.60;;;;;;;23.62;60.89;94908.19;4994808;28;20029;-90
2023/10/24 09:32:15;;;;;;;17.77;5.22;;;;;;;23.70;61.35;94904.28;5004469;28;20082;-92
2023/10/24 09:34:42;;;;;;;23.60;4.95;;;;;;;23.78;60.60;94906.47;4993691;28;20018;-90
2023/10/24 09:37:09;;;;;;;25.20;5.45;;;;;;;24.05;58.86;94902.69;4992268;28;20033;-91
2023/10/24 09:39:54;;;;;;;18.60;5.28;;;;;;;23.43;59.28;94899.84;4990565;28;20087;-90
2023/10/24 09:42:32;;;;;;;16.70;5.25;;;;;;;22.45;62.52;94895.56;4995483;28;20033;-88
2023/10/24 09:45:00;;;;;;;18.48;4.97;;;;;;;23.70;59.97;94891.84;5009274;28;20491;-90
2023/10/24 09:47:26;;;;;;;19.77;5.03;;;;;;;23.71;60.58;94877.59;4994917;28;20037;-92
2023/10/24 09:49:53;;;;;;;16.08;5.07;;;;;;;23.73;59.42;94885.28;4993787;28;20052;-89
2023/10/24 09:52:19;;;;;;;19.10;4.65;;;;;;;23.90;58.70;94875.31;4990963;28;20025;-90
2023/10/24 09:54:48;;;;;;;17.98;5.15;;;;;;;24.26;58.19;94877.16;5010094;28;20475;-88
2023/10/24 09:57:15;;;;;;;;;;;;;;;24.37;56.71;94873.47;4993403;28;20032;-90
2023/10/24 09:59:41;;;;;;;20.65;4.93;;;;;;;24.08;56.31;94854.50;5007275;28;19921;-91
2023/10/24 10:02:07;;;;;;;22.65;5.57;;;;;;;24.45;57.18;94872.22;5003773;28;20037;-93
2023/10/24 10:04:32;;;;;;;23.02;5.03;;;;;;;24.49;57.00;94868.00;4989165;28;20038;-91
2023/10/24 10:06:59;;;;;;;19.38;5.47;;;;;;;24.45;56.89;94848.38;4990369;28;20233;-89
2023/10/24 10:09:25;;;;;;;15.90;5.43;;;;;;;24.26;57.97;94860.47;4989289;28;20018;-89
2023/10/24 10:11:53;;;;;;;15.50;5.03;;;;;;;24.73;57.34;94841.81;4990116;28;20026;-89
2023/10/24 10:14:57;;;;;;;25.75;5.15;;;;;;;24.48;55.98;94848.66;4975545;28;20036;-90
2023/10/24 10:18:07;;;;;;;20.17;5.03;;;;;;;24.55;55.79;94851.06;4953172;28;20238;-89
2023/10/24 10:20:48;;;;;;;15.82;4.72;;;;;;;24.47;56.38;94851.53;4961146;28;20069;-88
2023/10/24 10:23:35;;;;;;;14.75;5.53;;;;;;;24.73;56.57;94841.81;4973960;28;20034;-91
2023/10/24 10:26:08;;;;;;;16.83;5.03;;;;;;;24.19;56.83;94839.53;5005957;28;20791;-90
2023/10/24 10:28:45;;;;;;;20.45;5.60;;;;;;;24.43;57.47;94846.00;5005463;28;20214;-90
2023/10/24 10:31:36;;;;;;;13.80;4.70;;;;;;;24.32;56.71;94838.25;5000541;28;20151;-90
2023/10/24 10:34:01;;;;;;;19.98;5.22;;;;;;;24.56;57.17;94821.63;5006102;28;20096;-90
2023/10/24 10:36:27;;;;;;;15.68;5.22;;;;;;;24.49;56.76;94821.13;4984513;28;20029;-91
2023/10/24 10:38:59;;;;;;;17.15;5.15;;;;;;;24.36;57.33;94826.88;4987042;28;20021;-91
2023/10/24 10:41:26;;;;;;;19.30;5.40;;;;;;;24.52;57.47;94833.84;4973796;28;20129;-93
2023/10/24 10:43:55;;;;;;;19.42;5.40;;;;;;;24.64;57.72;94823.78;4987653;28;20543;-91
2023/10/24 10:46:24;;;;;;;29.80;5.47;;;;;;;24.73;56.87;94831.22;4987596;28;20038;-90
2023/10/24 10:48:50;;;;;;;25.90;5.35;;;;;;;24.51;56.79;94820.84;4981961;28;20037;-91
2023/10/24 10:51:20;;;;;;;25.70;6.20;;;;;;;24.24;58.19;94812.28;4994144;28;20030;-86
2023/10/24 10:54:04;;;;;;;27.10;6.53;;;;;;;24.32;57.91;94814.41;4985292;28;20038;-90
2023/10/24 10:56:33;;;;;;;18.20;5.35;;;;;;;24.41;58.61;94808.34;4999579;28;20042;-85
2023/10/24 10:59:07;;;;;;;26.55;5.88;;;;;;;24.35;59.25;94808.59;4970288;28;20030;-89
2023/10/24 11:01:57;;;;;;;22.55;5.57;;;;;;;24.33;59.30;94797.47;4994670;28;20035;-87
2023/10/24 11:04:22;;;;;;;21.45;5.30;;;;;;;24.33;56.96;94790.34;4986090;28;20029;-89
2023/10/24 11:06:51;;;;;;;19.90;5.45;;;;;;;24.60;55.88;94790.94;5004805;28;20459;-90
2023/10/24 11:09:22;;;;;;;18.55;5.43;;;;;;;24.58;57.08;94786.97;4986168;28;20026;-87
2023/10/24 11:11:48;;;;;;;20.00;5.53;;;;;;;24.39;56.05;94756.72;4986315;28;20038;-89
2023/10/24 11:14:15;;;;;;;21.20;5.63;;;;;;;24.28;55.54;94757.72;4987008;28;20025;-92
2023/10/24 11:16:42;;;;;;;21.75;5.70;;;;;;;24.38;57.98;94774.44;5004948;28;20030;-88
2023/10/24 11:19:09;;;;;;;18.05;5.80;;;;;;;24.54;56.59;94754.88;4987727;28;20038;-92
2023/10/24 11:21:35;;;;;;;20.80;5.22;;;;;;;24.43;57.42;94755.94;4988989;28;20049;-92
2023/10/24 11:24:00;;;;;;;22.83;6.00;;;;;;;24.63;56.66;94763.09;4984968;28;20030;-89
2023/10/24 11:26:26;;;;;;;17.58;5.32;;;;;;;24.25;57.19;94748.47;4985134;28;20462;-91
2023/10/24 11:28:52;;;;;;;22.65;5.63;;;;;;;24.23;57.20;94736.53;5002149;28;20032;-89
2023/10/24 11:31:22;;;;;;;16.98;4.05;;;;;;;24.21;56.98;94742.09;4990832;28;20025;-88
2023/10/24 11:33:48;;;;;;;24.35;5.13;;;;;;;24.35;55.55;94739.75;4987171;28;20036;-91
2023/10/24 11:36:13;;;;;;;15.63;4.93;;;;;;;24.34;56.23;94743.47;4987847;28;20920;-91
2023/10/24 11:38:38;;;;;;;18.52;4.85;;;;;;;24.17;56.11;94727.00;5005765;28;20030;-88
2023/10/24 11:41:04;;;;;;;34.78;4.82;;;;;;;24.14;54.96;94728.31;4987384;28;20117;-89
2023/10/24 11:43:29;;;;;;;16.70;4.72;;;;;;;24.25;55.44;94724.63;4989241;28;20022;-90
2023/10/24 11:45:55;;;;;;;16.88;4.70;;;;;;;24.21;55.60;94736.78;4987020;28;20032;-87
2023/10/24 11:48:21;;;;;;;16.15;5.00;;;;;;;24.09;55.99;94715.81;4999266;28;20034;-87
2023/10/24 11:50:46;;;;;;;20.08;4.85;;;;;;;24.30;54.70;94732.59;4971735;28;20129;-87
2023/10/24 11:53:19;;;;;;;14.93;4.97;;;;;;;24.51;55.31;94733.44;4990166;28;20075;-84
2023/10/24 11:55:46;;;;;;;11.52;4.25;;;;;;;24.50;54.51;94719.38;4973912;28;20061;-85
2023/10/24 11:58:11;;;;;;;19.75;4.70;;;;;;;24.26;54.96;94728.06;4984833;28;20084;-88
2023/10/24 12:00:40;;;;;;;13.18;4.68;;;;;;;24.37;55.81;94725.19;4986935;28;20530;-88
2023/10/24 12:05:31;;;;;;;12.43;4.63;;;;;;;24.06;56.47;94718.19;4985481;28;19918;-89
2023/10/24 12:07:57;;;;;;;14.73;4.30;;;;;;;24.19;55.77;94709.00;4965883;28;20472;-85
2023/10/24 12:10:22;;;;;;;15.20;4.90;;;;;;;24.22;54.30;94703.97;4985763;28;20034;-87
2023/10/24 12:12:48;;;;;;;12.52;4.30;;;;;;;24.15;55.65;94698.13;5003108;28;20080;-87
2023/10/24 12:15:16;;;;;;;14.55;4.20;;;;;;;24.32;55.98;94684.66;4983730;28;20440;-92
2023/10/24 12:17:46;;;;;;;15.13;4.50;;;;;;;24.28;55.52;94689.69;4983655;28;20111;-89
2023/10/24 12:20:11;;;;;;;10.68;4.15;;;;;;;24.31;55.99;94686.50;4982453;28;20116;-89
2023/10/24 12:22:37;;;;;;;15.32;4.15;;;;;;;24.29;55.08;94675.41;4984224;28;20124;-82
2023/10/24 12:25:02;;;;;;;16.73;4.72;;;;;;;24.30;55.52;94692.88;4999858;28;20026;-87
2023/10/24 12:27:28;;;;;;;17.23;4.45;;;;;;;24.09;55.22;94680.63;4975350;28;20038;-88
2023/10/24 12:29:53;;;;;;;11.48;3.88;;;;;;;24.08;55.62;94689.63;4978301;28;20038;-89
2023/10/24 12:32:18;;;;;;;16.02;4.18;;;;;;;24.06;55.71;94675.84;4983915;28;20133;-91
2023/10/24 12:34:44;;;;;;;14.00;4.32;;;;;;;24.01;54.50;94674.00;4983012;28;20022;-86
2023/10/24 12:37:10;;;;;;;19.20;4.70;;;;;;;23.99;55.59;94670.78;4997019;28;20631;-85
2023/10/24 12:39:35;;;;;;;14.05;4.38;;;;;;;23.98;56.86;94676.38;4981939;28;20544;-84
2023/10/24 12:42:00;;;;;;;18.67;4.35;;;;;;;23.92;56.39;94680.81;4993945;28;20059;-86
2023/10/24 12:44:26;;;;;;;11.32;3.83;;;;;;;23.98;55.94;94686.94;4987834;28;20099;-85
2023/10/24 12:46:52;;;;;;;12.52;4.22;;;;;;;23.89;56.18;94683.22;4978579;28;20026;-88
2023/10/24 12:49:17;;;;;;;12.65;4.72;;;;;;;23.63;56.09;94657.72;4982683;28;20061;-86
2023/10/24 12:51:43;;;;;;;17.10;4.50;;;;;;;23.77;55.69;94678.13;4975830;28;20487;-86
2023/10/24 12:54:09;;;;;;;13.23;4.15;;;;;;;23.54;56.16;94670.63;4971753;28;20623;-85
2023/10/24 12:56:35;;;;;;;10.73;3.53;;;;;;;23.66;55.75;94675.72;4992818;28;20058;-85
2023/10/24 12:59:01;;;;;;;17.08;4.57;;;;;;;23.47;56.88;94654.22;4980079;28;20029;-85
2023/10/24 13:01:29;;;;;;;15.60;3.85;;;;;;;23.57;56.84;94665.63;4980393;28;20443;-87
2023/10/24 13:03:54;;;;;;;13.30;4.07;;;;;;;23.54;56.46;94654.75;4988740;28;20427;-85
2023/10/24 13:06:21;;;;;;;14.45;4.20;;;;;;;23.59;56.60;94645.00;4981221;28;20038;-85
2023/10/24 13:08:47;;;;;;;13.13;4.22;;;;;;;23.43;56.49;94642.56;4980823;28;20464;-86
2023/10/24 13:11:12;;;;;;;14.57;3.65;;;;;;;23.48;55.75;94651.31;4981125;28;20040;-86
2023/10/24 13:13:38;;;;;;;15.38;4.18;;;;;;;23.52;56.96;94657.69;4997889;28;20458;-86
2023/10/24 13:16:03;;;;;;;15.32;4.35;;;;;;;23.46;56.73;94653.41;4977087;28;20036;-86
2023/10/24 13:18:29;;;;;;;11.82;3.38;;;;;;;23.39;57.12;94657.31;4997119;28;20045;-85
2023/10/24 13:20:54;;;;;;;15.80;4.10;;;;;;;23.16;56.93;94640.00;4984995;28;20480;-85
2023/10/24 13:23:20;;;;;;;12.80;4.30;;;;;;;23.43;57.82;94645.22;4997667;28;20038;-87
2023/10/24 13:25:45;;;;;;;15.63;4.38;;;;;;;23.27;56.86;94622.38;4998909;28;20092;-86
2023/10/24 13:28:11;;;;;;;22.98;4.68;;;;;;;23.10;57.21;94607.47;4987360;28;20518;-87
2023/10/24 13:30:36;;;;;;;13.02;4.07;;;;;;;23.24;57.74;94646.66;5000920;28;20034;-86
2023/10/24 13:33:01;;;;;;;18.00;3.80;;;;;;;23.26;58.00;94641.91;4975657;28;20700;-86
2023/10/24 13:35:27;;;;;;;12.13;4.38;;;;;;;23.25;57.79;94640.31;4987224;28;20034;-85
2023/10/24 13:37:52;;;;;;;11.23;4.22;;;;;;;23.26;58.20;94640.06;5002083;28;20021;-86
2023/10/24 13:40:19;;;;;;;13.25;3.70;;;;;;;23.26;57.67;94628.69;5004961;28;20030;-87
2023/10/24 13:42:45;;;;;;;18.70;4.65;;;;;;;22.96;57.15;94605.53;4982545;28;20045;-85
2023/10/24 13:45:11;;;;;;;18.20;4.38;;;;;;;23.07;57.12;94623.06;4975615;28;20042;-85
2023/10/24 13:47:36;;;;;;;14.65;4.05;;;;;;;23.02;56.82;94625.69;4982783;28;20029;-85
2023/10/24 13:50:02;;;;;;;12.85;3.80;;;;;;;22.84;58.07;94608.38;5004425;28;20022;-83
2023/10/24 13:52:30;;;;;;;15.32;4.57;;;;;;;22.91;58.64;94619.53;5003013;28;20477;-83
2023/10/24 13:54:55;;;;;;;14.50;3.57;;;;;;;22.78;59.29;94608.59;4979222;28;24133;-83
2023/10/24 13:57:21;;;;;;;16.80;4.20;;;;;;;22.86;58.23;94606.28;4986195;28;20041;-83
2023/10/24 13:59:46;;;;;;;16.33;4.15;;;;;;;22.83;57.79;94608.66;5001061;28;20458;-84
2023/10/24 14:02:12;;;;;;;14.02;4.45;;;;;;;22.87;58.17;94607.06;4996851;28;20431;-82
2023/10/24 14:04:39;;;;;;;12.82;4.80;;;;;;;22.82;58.79;94594.66;5003035;28;20018;-83
2023/10/24 14:07:04;;;;;;;17.65;5.05;;;;;;;22.71;59.68;94584.25;5001859;28;20038;-84
2023/10/24 14:09:30;;;;;;;13.45;3.78;;;;;;;22.68;59.26;94590.84;5001775;28;20022;-83
2023/10/24 14:11:55;;;;;;;17.40;4.10;;;;;;;22.71;59.03;94594.81;5003587;28;20014;-85
2023/10/24 14:14:22;;;;;;;12.90;4.00;;;;;;;22.71;59.61;94587.69;5003494;28;20112;-85
2023/10/24 14:16:47;;;;;;;13.48;4.38;;;;;;;22.62;60.45;94589.19;4981647;28;20478;-85
2023/10/24 14:19:13;;;;;;;17.20;4.45;;;;;;;22.45;60.20;94570.06;5000221;28;20026;-85
2023/10/24 14:21:38;;;;;;;13.18;4.63;;;;;;;22.55;59.99;94572.75;4990306;28;20442;-86
2023/10/24 14:24:04;;;;;;;8.80;3.63;;;;;;;22.53;60.30;94582.78;4995722;28;20056;-86
2023/10/24 14:26:29;;;;;;;12.63;4.15;;;;;;;22.44;60.89;94584.31;4992338;28;20046;-85
2023/10/24 14:28:54;;;;;;;20.35;4.18;;;;;;;22.34;61.59;94586.88;4992770;28;20033;-85
2023/10/24 14:31:20;;;;;;;14.63;4.20;;;;;;;22.21;61.82;94576.75;5001519;28;20034;-85
2023/10/24 14:33:45;;;;;;;18.95;4.82;;;;;;;22.28;62.53;94588.69;4999400;28;20022;-85
2023/10/24 14:36:11;;;;;;;15.18;4.60;;;;;;;22.16;64.18;94585.41;4983533;28;20093;-84
2023/10/24 14:38:36;;;;;;;14.15;4.50;;;;;;;21.97;64.42;94553.31;4999523;28;20391;-85
2023/10/24 14:41:01;;;;;;;14.85;4.60;;;;;;;22.01;64.71;94588.72;4980759;28;20573;-86
2023/10/24 14:43:27;;;;;;;17.63;4.90;;;;;;;22.02;64.87;94565.78;4998780;28;20030;-85
2023/10/24 14:45:52;;;;;;;12.20;4.63;;;;;;;21.94;64.01;94571.50;5000022;28;20034;-86
2023/10/24 14:48:18;;;;;;;14.80;4.38;;;;;;;21.65;66.24;94564.84;4978984;28;20203;-85
2023/10/24 14:50:43;;;;;;;19.83;4.40;;;;;;;21.65;67.10;94573.56;4968654;28;20185;-85
2023/10/24 14:53:09;;;;;;;18.75;5.00;;;;;;;21.65;69.99;94567.47;4999883;28;20030;-86
2023/10/24 14:55:35;;;;;;;30.92;5.45;;;;;;;21.53;74.88;94570.28;4999130;28;20037;-86
2023/10/24 14:58:01;;;;;;;27.05;5.40;;;;;;;21.34;76.99;94559.28;4980609;28;20515;-85
2023/10/24 15:00:26;;;;;;;26.65;5.78;;;;;;;21.27;78.93;94563.94;4998095;28;20054;-85
2023/10/24 15:02:52;;;;;;;24.70;4.88;;;;;;;21.06;79.13;94559.44;4983449;28;20037;-86
2023/10/24 15:05:18;;;;;;;39.70;6.57;;;;;;;20.95;82.74;94557.72;4972486;28;20087;-85
2023/10/24 15:07:43;;;;;;;17.77;4.78;;;;;;;20.78;82.88;94546.41;4981034;28;20026;-85
2023/10/24 15:10:09;;;;;;;26.15;5.00;;;;;;;20.72;84.58;94564.00;4988700;28;20025;-87
2023/10/24 15:12:34;;;;;;;17.33;4.97;;;;;;;20.54;86.03;94566.09;4999928;28;20033;-85
2023/10/24 15:15:00;;;;;;;26.63;5.18;;;;;;;20.34;86.36;94554.25;4983314;28;20061;-84
2023/10/24 15:17:25;;;;;;;27.52;5.63;;;;;;;20.16;85.52;94537.88;4997910;28;20037;-86
2023/10/24 15:19:51;;;;;;;21.25;4.70;;;;;;;19.98;87.08;94544.16;4994449;28;20412;-85
2023/10/24 15:22:16;;;;;;;13.98;4.38;;;;;;;19.87;86.27;94555.56;4989295;28;20332;-87
2023/10/24 15:24:42;;;;;;;22.45;5.10;;;;;;;19.72;87.10;94573.69;4985546;28;20030;-85
2023/10/24 15:27:08;;;;;;;20.27;4.45;;;;;;;19.52;86.45;94570.72;5001097;28;20388;-83
2023/10/24 15:29:36;;;;;;;17.58;5.22;;;;;;;19.35;86.90;94568.00;4984677;28;20021;-84
2023/10/24 15:32:07;;;;;;;26.03;4.60;;;;;;;19.33;86.31;94581.34;5001219;28;20125;-85
2023/10/24 15:34:33;;;;;;;19.75;4.40;;;;;;;19.11;87.56;94580.38;4983842;28;20030;-84
2023/10/24 15:36:59;;;;;;;23.50;4.70;;;;;;;18.89;89.50;94582.84;4984222;28;20511;-85
2023/10/24 15:39:24;;;;;;;22.30;4.97;;;;;;;18.69;90.73;94597.34;4997670;28;20033;-84
2023/10/24 15:41:50;;;;;;;18.55;4.30;;;;;;;18.43;91.13;94565.28;5001694;28;20026;-87
2023/10/24 15:44:16;;;;;;;27.08;4.95;;;;;;;18.33;91.74;94586.03;4999978;28;20455;-87
2023/10/24 15:46:42;;;;;;;32.53;5.18;;;;;;;18.32;92.41;94600.19;5001721;28;20021;-87
2023/10/24 15:49:07;;;;;;;31.80;5.95;;;;;;;18.17;93.69;94599.03;4984185;28;20038;-85
2023/10/24 15:51:34;;;;;;;38.10;4.57;;;;;;;17.92;95.29;94587.94;4999768;28;20026;-85
2023/10/24 15:54:00;;;;;;;51.83;5.38;;;;;;;17.93;95.74;94600.78;5002651;28;20060;-84
2023/10/24 15:56:25;;;;;;;50.83;6.28;;;;;;;17.62;96.88;94596.59;4999881;28;20488;-85
2023/10/24 15:58:51;;;;;;;42.83;6.50;;;;;;;17.46;97.76;94599.00;5000562;28;20022;-85
2023/10/24 16:01:17;;;;;;;41.40;15.32;;;;;;;17.61;97.29;94620.38;5017777;28;20045;-86
2023/10/24 16:03:44;;;;;;;38.13;8.57;;;;;;;17.51;97.78;94628.75;4976830;28;20046;-87
2023/10/24 16:06:10;;;;;;;36.95;5.80;;;;;;;17.45;97.99;94623.59;4998907;28;20037;-83
2023/10/24 16:08:35;;;;;;;44.50;5.95;;;;;;;17.05;99.09;94592.66;4987965;28;20096;-87
2023/10/24 16:11:01;;;;;;;317.42;195.10;;;;;;;17.19;99.48;94625.50;4970369;28;20124;-84
2023/10/24 16:13:27;;;;;;;230.55;140.65;;;;;;;16.85;100.00;94576.41;5012373;28;20037;-86
2023/10/24 16:15:52;;;;;;;89.07;9.93;;;;;;;16.74;100.00;94611.13;4987597;28;20045;-89
2023/10/24 16:18:19;;;;;;;64.57;8.48;;;;;;;16.85;100.00;94626.09;4987088;28;20035;-89
2023/10/24 16:20:44;;;;;;;70.32;8.02;;;;;;;16.58;100.00;94627.38;4986613;28;20519;-90
2023/10/24 16:23:10;;;;;;;65.75;7.32;;;;;;;16.49;100.00;94597.25;4995493;28;20041;-90
2023/10/24 16:25:35;;;;;;;45.92;6.15;;;;;;;16.52;100.00;94602.06;5005748;28;20039;-90
2023/10/24 16:28:01;;;;;;;22.83;6.85;;;;;;;16.15;100.00;94577.66;4989546;28;20029;-90
2023/10/24 16:30:27;;;;;;;27.25;6.10;;;;;;;16.29;100.00;94606.06;4975364;28;20030;-90
2023/10/24 16:32:53;;;;;;;41.58;7.40;;;;;;;16.09;100.00;94613.25;4986889;28;20022;-91
2023/10/24 16:35:18;;;;;;;44.40;8.05;;;;;;;16.03;100.00;94621.94;4976180;28;20025;-89
2023/10/24 16:37:44;;;;;;;26.83;7.15;;;;;;;15.95;100.00;94585.66;5004390;28;20447;-92
2023/10/24 16:40:10;;;;;;;14.23;4.60;;;;;;;16.12;100.00;94612.84;4977489;28;20033;-93
2023/10/24 16:42:35;;;;;;;19.92;5.80;;;;;;;15.96;100.00;94600.28;4984268;28;20566;-92
2023/10/24 16:45:01;;;;;;;16.30;5.15;;;;;;;15.92;100.00;94617.44;4994805;28;20038;-91
2023/10/24 16:47:26;;;;;;;16.52;4.72;;;;;;;16.22;100.00;94592.25;5023111;28;20026;-89
2023/10/24 16:49:52;;;;;;;19.75;5.38;;;;;;;17.06;95.15;94617.00;4989615;28;20024;-93
2023/10/24 16:52:17;;;;;;;22.08;5.07;;;;;;;17.34;91.37;94607.59;5022939;28;20032;-92
2023/10/24 16:54:44;;;;;;;13.85;5.57;;;;;;;17.84;86.76;94591.66;4986161;28;20034;-91
2023/10/24 16:57:09;;;;;;;23.73;6.13;;;;;;;18.19;84.50;94583.84;4969214;28;20414;-92
2023/10/24 16:59:35;;;;;;;16.67;6.45;;;;;;;18.66;81.01;94584.69;5002217;28;20222;-89
2023/10/24 17:02:00;;;;;;;14.10;6.57;;;;;;;18.47;81.20;94563.00;4990640;28;20064;-91
2023/10/24 17:04:26;;;;;;;13.02;6.07;;;;;;;18.43;81.87;94567.09;4979708;28;20034;-89
2023/10/24 17:06:51;;;;;;;17.95;5.50;;;;;;;18.53;79.89;94543.75;5026596;28;20037;-91
2023/10/24 17:09:17;;;;;;;16.35;5.68;;;;;;;18.58;79.74;94551.75;5009849;28;20033;-90
2023/10/24 17:11:43;;;;;;;19.02;5.68;;;;;;;18.59;79.88;94566.44;4976443;28;20541;-88
2023/10/24 17:14:09;;;;;;;18.35;5.10;;;;;;;18.58;79.44;94546.50;5017645;28;20029;-87
2023/10/24 17:16:34;;;;;;;13.25;4.30;;;;;;;18.81;78.64;94562.22;5004636;28;20092;-94
2023/10/24 17:19:01;;;;;;;12.25;4.13;;;;;;;18.79;78.12;94545.88;4984359;28;20026;-92